Time;durP1;ratioP1;P1;durP2;ratioP2;P2;SDS_P1;SDS_P2;PMS_P1;PMS_P2;Temp;Humidity;BMP_temperature;BMP_pressure;BME280_temperature;BME280_humidity;BME280_pressure;Samples;Min_cycle;Max_cycle;Signal;HPM_P1;HPM_P2
2021/12/30 14:13:48;;;;;;;70.32;35.13;;;;;;;-5.13;83.14;99907.13;1765745;78;23211;-59
2021/12/30 14:16:23;;;;;;;59.30;28.23;;;;;;;-5.10;83.14;99907.21;1738574;80;21983;-62
2021/12/30 14:18:55;;;;;;;50.88;28.92;;;;;;;-4.93;82.59;99902.48;1735965;80;22128;-50
2021/12/30 14:21:27;;;;;;;54.38;28.87;;;;;;;-4.79;82.26;99909.21;1735346;81;21648;-54
2021/12/30 14:23:56;;;;;;;77.40;34.78;;;;;;;-4.66;82.50;99899.69;1734490;80;21554;-51
2021/12/30 14:26:32;;;;;;;69.72;32.95;;;;;;;-4.57;82.50;99901.17;1727202;80;21002;-56
2021/12/30 14:29:20;;;;;;;57.55;29.50;;;;;;;-4.44;81.99;99907.45;1735516;81;21538;-56
2021/12/30 14:31:57;;;;;;;64.58;33.30;;;;;;;-4.36;80.77;99908.47;1741506;79;22123;-51
2021/12/30 14:34:43;;;;;;;55.35;30.50;;;;;;;-4.26;81.03;99906.11;1738027;80;21025;-54
2021/12/30 14:37:15;;;;;;;54.73;30.37;;;;;;;-4.17;80.81;99916.15;1733672;80;21423;-55
2021/12/30 14:39:47;;;;;;;47.00;28.00;;;;;;;-4.11;80.75;99917.97;1733118;80;21458;-60
2021/12/30 14:42:30;;;;;;;42.45;25.65;;;;;;;-4.09;79.96;99921.86;1728167;80;21605;-57
2021/12/30 14:45:17;;;;;;;38.78;23.45;;;;;;;-4.05;80.59;99929.69;1737048;80;21775;-54
2021/12/30 14:47:50;;;;;;;39.65;23.15;;;;;;;-4.01;80.16;99933.16;1732374;80;21490;-55
2021/12/30 14:50:20;;;;;;;46.08;26.20;;;;;;;-3.96;79.12;99930.27;1735685;80;21491;-58
2021/12/30 14:53:02;;;;;;;35.28;21.20;;;;;;;-3.91;80.09;99932.09;1724998;81;21822;-57
2021/12/30 14:55:35;;;;;;;36.58;21.05;;;;;;;-3.87;79.47;99924.46;1743031;80;21502;-52
2021/12/30 14:58:07;;;;;;;36.53;20.60;;;;;;;-3.84;79.32;99925.78;1735165;80;21811;-57
2021/12/30 15:00:40;;;;;;;37.58;21.97;;;;;;;-3.84;78.92;99924.11;1737828;80;21431;-59
2021/12/30 15:03:06;;;;;;;36.45;22.35;;;;;;;-3.73;78.99;99919.16;1737586;81;21412;-50
2021/12/30 15:05:34;;;;;;;29.20;19.20;;;;;;;-3.65;78.46;99912.48;1738000;81;21510;-55
2021/12/30 15:08:05;;;;;;;33.90;20.45;;;;;;;-3.62;77.46;99910.37;1723358;81;21645;-55
2021/12/30 15:10:31;;;;;;;27.77;18.07;;;;;;;-3.61;77.71;99915.55;1726907;80;21764;-58
2021/12/30 15:12:58;;;;;;;29.90;19.77;;;;;;;-3.61;77.27;99915.97;1743912;80;21522;-57
2021/12/30 15:15:27;;;;;;;30.68;17.75;;;;;;;-3.63;76.88;99914.66;1743302;80;20975;-58
2021/12/30 15:17:55;;;;;;;33.08;19.57;;;;;;;-3.62;76.77;99915.52;1736921;80;21006;-54
2021/12/30 15:20:24;;;;;;;31.90;18.83;;;;;;;-3.62;76.44;99912.52;1738121;80;21509;-57
2021/12/30 15:22:51;;;;;;;31.73;18.73;;;;;;;-3.61;75.40;99918.12;1736327;81;21805;-55
2021/12/30 15:25:18;;;;;;;21.05;13.40;;;;;;;-3.60;75.75;99907.41;1743861;81;21003;-57
2021/12/30 15:27:46;;;;;;;;;;;;;;;-3.64;75.81;99900.48;1731991;80;21580;-55
2021/12/30 15:30:14;;;;;;;27.70;16.77;;;;;;;-3.61;75.86;99906.55;1732648;80;20130;-59
2021/12/30 15:32:42;;;;;;;30.02;17.98;;;;;;;-3.53;76.20;99905.41;1736681;80;21578;-57
2021/12/30 15:35:10;;;;;;;29.02;18.00;;;;;;;-3.54;75.95;99904.98;1730992;80;21427;-56
2021/12/30 15:37:37;;;;;;;41.98;20.50;;;;;;;-3.50;76.02;99909.33;1678819;83;21588;-54
2021/12/30 15:40:04;;;;;;;33.20;19.67;;;;;;;-3.45;75.90;99900.40;1682142;84;21519;-57
2021/12/30 15:42:32;;;;;;;31.15;19.50;;;;;;;-3.40;75.79;99905.22;1685035;82;21672;-62
2021/12/30 15:44:58;;;;;;;48.17;24.13;;;;;;;-3.38;75.69;99908.25;1685129;82;21555;-60
2021/12/30 15:47:25;;;;;;;41.33;22.10;;;;;;;-3.41;74.96;99909.50;1683956;84;21753;-56
2021/12/30 15:49:52;;;;;;;34.35;20.10;;;;;;;-3.43;75.17;99912.86;1689712;83;21444;-59
2021/12/30 15:52:19;;;;;;;33.80;20.00;;;;;;;-3.48;75.22;99907.65;1674975;82;21504;-57
2021/12/30 15:54:47;;;;;;;37.23;22.20;;;;;;;-3.49;74.83;99899.91;1681574;84;21566;-54
2021/12/30 15:57:14;;;;;;;43.25;23.40;;;;;;;-3.52;74.81;99908.01;1686471;83;21556;-53
2021/12/30 15:59:41;;;;;;;34.88;20.30;;;;;;;-3.52;75.29;99894.30;1691230;82;21765;-56
2021/12/30 16:02:09;;;;;;;33.53;20.07;;;;;;;-3.46;75.39;99895.69;1692790;82;21594;-53
2021/12/30 16:04:36;;;;;;;32.90;19.10;;;;;;;-3.41;75.12;99900.89;1678081;82;21757;-55
2021/12/30 16:07:04;;;;;;;39.15;21.85;;;;;;;-3.43;74.75;99907.29;1690150;82;21592;-55
2021/12/30 16:09:32;;;;;;;34.03;20.50;;;;;;;-3.49;74.49;99907.62;1662622;83;21014;-58
2021/12/30 16:12:00;;;;;;;32.48;19.90;;;;;;;-3.55;74.77;99908.38;1691196;83;21625;-57
2021/12/30 16:14:27;;;;;;;28.20;15.93;;;;;;;-3.56;75.10;99919.08;1680383;83;21592;-59
2021/12/30 16:16:54;;;;;;;41.15;20.55;;;;;;;-3.56;75.10;99919.08;1678013;83;21456;-57
2021/12/30 16:19:21;;;;;;;27.50;16.57;;;;;;;-3.55;75.12;99918.22;1679087;83;21572;-58
2021/12/30 16:21:49;;;;;;;38.00;21.62;;;;;;;-3.47;75.45;99914.51;1680422;84;21047;-58
2021/12/30 16:24:16;;;;;;;36.33;20.85;;;;;;;-3.42;75.17;99909.03;1676467;83;27010;-62
2021/12/30 16:26:43;;;;;;;36.83;21.33;;;;;;;-3.33;75.35;99909.63;1679920;84;21046;-57
2021/12/30 16:29:09;;;;;;;42.73;22.62;;;;;;;-3.33;74.88;99906.62;1687082;83;21117;-58
2021/12/30 16:31:36;;;;;;;41.87;22.90;;;;;;;-3.32;74.90;99910.06;1679586;83;21532;-61
2021/12/30 16:34:03;;;;;;;38.42;22.52;;;;;;;-3.33;74.89;99904.06;1683122;83;21673;-60
2021/12/30 16:36:31;;;;;;;34.83;19.12;;;;;;;-3.31;75.19;99910.52;1721956;82;21812;-59
2021/12/30 16:38:58;;;;;;;36.80;20.45;;;;;;;-3.28;75.18;99916.98;1718489;81;21542;-59
2021/12/30 16:41:26;;;;;;;36.08;19.57;;;;;;;-3.27;74.96;99914.02;1714679;82;21551;-59
2021/12/30 16:43:55;;;;;;;32.98;19.55;;;;;;;-3.35;74.59;99912.17;1720027;81;21574;-56
2021/12/30 16:46:25;;;;;;;35.23;20.02;;;;;;;-3.38;75.11;99903.53;1716600;81;21463;-61
2021/12/30 16:48:52;;;;;;;34.48;19.23;;;;;;;-3.40;75.20;99903.92;1722998;81;22095;-57
2021/12/30 16:51:20;;;;;;;30.97;18.45;;;;;;;-3.37;75.47;99900.10;1718129;82;21534;-57
2021/12/30 16:53:47;;;;;;;30.35;19.30;;;;;;;-3.36;75.49;99900.13;1716538;82;21561;-55
2021/12/30 16:56:14;;;;;;;36.45;20.23;;;;;;;-3.34;75.43;99906.59;1726620;81;21854;-57
2021/12/30 16:58:41;;;;;;;37.65;19.17;;;;;;;-3.37;75.12;99908.70;1725222;82;21156;-57
2021/12/30 17:01:07;;;;;;;40.05;22.20;;;;;;;-3.37;75.55;99911.67;1715855;81;21832;-54
2021/12/30 17:03:34;;;;;;;46.97;23.60;;;;;;;-3.37;75.60;99912.95;1713223;82;21549;-56
2021/12/30 17:06:02;;;;;;;44.93;23.67;;;;;;;-3.34;75.50;99915.59;1723887;82;21081;-56
2021/12/30 17:08:30;;;;;;;49.42;25.20;;;;;;;-3.33;75.61;99924.63;1719014;82;21507;-56
2021/12/30 17:10:57;;;;;;;51.42;25.88;;;;;;;-3.31;76.33;99920.81;1723141;82;21015;-55
2021/12/30 17:13:24;;;;;;;44.53;24.40;;;;;;;-3.37;77.14;99919.39;1720141;81;21786;-57
2021/12/30 17:15:51;;;;;;;51.00;25.65;;;;;;;-3.45;77.50;99913.25;1730139;81;21116;-59
2021/12/30 17:18:21;;;;;;;45.80;24.02;;;;;;;-3.46;78.50;99902.54;1738714;81;21617;-58
2021/12/30 17:20:48;;;;;;;44.10;22.80;;;;;;;-3.45;78.62;99901.69;1738454;81;21580;-58
2021/12/30 17:23:15;;;;;;;41.65;24.95;;;;;;;-3.44;77.98;99889.29;1736465;81;21616;-58
2021/12/30 17:25:41;;;;;;;48.20;25.83;;;;;;;-3.35;78.35;99882.59;1726531;81;21784;-58
2021/12/30 17:28:12;;;;;;;52.70;27.10;;;;;;;-3.28;78.22;99879.69;1734334;80;21505;-58
2021/12/30 17:30:37;;;;;;;52.25;28.67;;;;;;;-3.30;78.81;99886.95;1729328;81;21577;-60
2021/12/30 17:33:05;;;;;;;44.40;24.43;;;;;;;-3.27;78.94;99889.58;1730727;81;21513;-58
2021/12/30 17:35:32;;;;;;;49.60;26.10;;;;;;;-3.26;78.94;99895.16;1740677;81;20938;-59
2021/12/30 17:37:58;;;;;;;48.30;26.87;;;;;;;-3.34;77.24;99898.45;1732143;81;22038;-60
2021/12/30 17:40:25;;;;;;;54.48;26.85;;;;;;;-3.39;77.73;99894.07;1733550;81;21408;-58
2021/12/30 17:42:54;;;;;;;48.83;25.90;;;;;;;-3.38;77.91;99884.25;1729760;81;20986;-58
2021/12/30 17:45:20;;;;;;;50.15;27.10;;;;;;;-3.33;77.34;99892.48;1736547;81;21558;-59
2021/12/30 17:47:47;;;;;;;68.17;29.72;;;;;;;-3.28;77.45;99888.69;1743344;81;21660;-58
2021/12/30 17:50:20;;;;;;;47.83;26.87;;;;;;;-3.24;76.55;99890.90;1737300;81;25728;-60
2021/12/30 17:52:50;;;;;;;46.42;24.10;;;;;;;-3.22;76.83;99884.07;1726080;81;21610;-58
2021/12/30 17:55:17;;;;;;;55.23;28.80;;;;;;;-3.23;76.38;99878.08;1725813;81;20998;-61
2021/12/30 17:57:44;;;;;;;58.98;29.70;;;;;;;-3.23;76.56;99878.50;1734141;80;21438;-59
2021/12/30 18:00:12;;;;;;;56.92;27.93;;;;;;;-3.27;76.19;99883.16;1727364;81;21423;-57
2021/12/30 18:02:39;;;;;;;61.18;29.18;;;;;;;-3.33;79.69;99881.34;1731360;81;21734;-58
2021/12/30 18:05:07;;;;;;;61.10;28.73;;;;;;;-3.35;81.54;99874.88;1744371;81;25565;-58
2021/12/30 18:07:35;;;;;;;50.15;26.50;;;;;;;-3.36;82.77;99873.13;1731807;81;21510;-58
2021/12/30 18:10:04;;;;;;;52.90;24.93;;;;;;;-3.30;83.31;99874.09;1730295;81;21615;-60
2021/12/30 18:12:33;;;;;;;43.58;23.73;;;;;;;-3.28;82.89;99865.98;1738816;81;21408;-59
2021/12/30 18:15:00;;;;;;;;;;;;;;;-3.29;82.60;99871.98;1726745;80;21660;-59
2021/12/30 18:17:29;;;;;;;44.38;23.62;;;;;;;-3.36;82.23;99858.99;1721566;82;20440;-58
2021/12/30 18:19:55;;;;;;;52.08;24.45;;;;;;;-3.43;82.21;99857.16;1725363;82;21460;-59
2021/12/30 18:22:23;;;;;;;59.65;29.15;;;;;;;-3.49;81.99;99857.48;1727347;81;21456;-58
2021/12/30 18:24:50;;;;;;;56.23;26.55;;;;;;;-3.52;82.72;99860.88;1724235;81;21628;-59
2021/12/30 18:27:19;;;;;;;40.45;20.27;;;;;;;-3.55;83.34;99859.10;1714672;82;21484;-58
2021/12/30 18:29:48;;;;;;;51.25;26.60;;;;;;;-3.50;83.73;99867.30;1718080;81;20995;-59
2021/12/30 18:32:16;;;;;;;47.03;24.87;;;;;;;-3.52;82.96;99860.88;1728925;81;21519;-56
2021/12/30 18:34:45;;;;;;;44.85;24.32;;;;;;;-3.57;82.29;99862.06;1725564;81;21436;-57
2021/12/30 18:37:13;;;;;;;45.98;24.18;;;;;;;-3.56;82.77;99859.95;1722855;81;21566;-57
2021/12/30 18:39:40;;;;;;;46.73;24.55;;;;;;;-3.59;81.88;99856.03;1716291;82;21614;-57
2021/12/30 18:42:07;;;;;;;44.00;24.45;;;;;;;-3.55;82.46;99843.67;1720488;81;21507;-57
2021/12/30 18:44:35;;;;;;;54.15;27.10;;;;;;;-3.53;82.60;99844.56;1726350;81;21436;-57
2021/12/30 18:47:03;;;;;;;42.10;24.45;;;;;;;-3.50;81.61;99845.45;1719076;82;21057;-57
2021/12/30 18:49:29;;;;;;;46.00;24.45;;;;;;;-3.50;82.00;99845.06;1716222;81;21452;-57
2021/12/30 18:51:56;;;;;;;52.87;26.00;;;;;;;-3.50;79.81;99851.88;1723017;81;21748;-56
2021/12/30 18:54:22;;;;;;;45.78;25.20;;;;;;;-3.49;80.55;99849.34;1732197;81;21518;-58
2021/12/30 18:56:49;;;;;;;52.30;26.42;;;;;;;-3.56;78.84;99854.81;1722032;81;21558;-57
2021/12/30 18:59:15;;;;;;;47.65;24.95;;;;;;;-3.55;79.28;99852.67;1717071;81;20998;-57
2021/12/30 19:01:42;;;;;;;47.13;24.20;;;;;;;-3.56;79.38;99851.36;1720468;81;21531;-58
2021/12/30 19:04:09;;;;;;;53.30;26.90;;;;;;;-3.52;78.77;99852.73;1725770;81;21787;-58
2021/12/30 19:06:37;;;;;;;47.62;24.75;;;;;;;-3.46;77.98;99847.27;1721965;81;21468;-59
2021/12/30 19:09:05;;;;;;;39.83;20.70;;;;;;;-3.49;76.80;99847.20;1720871;82;21006;-60
2021/12/30 19:11:33;;;;;;;45.92;24.32;;;;;;;-3.55;76.23;99845.39;1716491;81;21451;-59
2021/12/30 19:14:00;;;;;;;44.98;22.50;;;;;;;-3.60;76.88;99845.72;1718104;80;21574;-57
2021/12/30 19:16:27;;;;;;;54.03;23.75;;;;;;;-3.61;76.61;99852.58;1722749;81;21564;-57
2021/12/30 19:18:54;;;;;;;46.20;22.55;;;;;;;-3.59;76.55;99844.90;1717654;81;21463;-57
2021/12/30 19:21:20;;;;;;;43.33;22.73;;;;;;;-3.58;76.56;99841.08;1714565;82;21430;-59
2021/12/30 19:23:48;;;;;;;49.95;24.20;;;;;;;-3.58;76.20;99832.08;1724252;81;21558;-58
2021/12/30 19:26:15;;;;;;;41.60;21.35;;;;;;;-3.60;76.36;99822.59;1723704;82;21538;-58
2021/12/30 19:28:42;;;;;;;47.53;23.20;;;;;;;-3.58;76.27;99819.63;1714568;81;21962;-58
2021/12/30 19:31:09;;;;;;;39.73;21.87;;;;;;;-3.57;76.35;99814.94;1720669;82;21419;-58
2021/12/30 19:33:37;;;;;;;49.90;23.90;;;;;;;-3.52;76.38;99817.17;1721089;81;20999;-59
2021/12/30 19:36:04;;;;;;;51.60;25.52;;;;;;;-3.51;76.18;99818.89;1726389;81;21506;-58
2021/12/30 19:38:32;;;;;;;50.13;25.73;;;;;;;-3.50;75.98;99818.06;1731101;81;21159;-57
2021/12/30 19:41:01;;;;;;;50.28;25.27;;;;;;;-3.49;75.83;99811.21;1720699;81;21715;-59
2021/12/30 19:43:28;;;;;;;48.15;24.40;;;;;;;-3.49;75.88;99807.36;1723077;81;21523;-59
2021/12/30 19:45:54;;;;;;;46.88;23.77;;;;;;;-3.51;76.00;99803.47;1724065;80;22180;-58
2021/12/30 19:48:21;;;;;;;42.15;23.00;;;;;;;-3.47;76.05;99799.24;1717912;82;21527;-61
2021/12/30 19:50:48;;;;;;;42.20;22.30;;;;;;;-3.41;76.17;99795.48;1717593;81;21566;-61
2021/12/30 19:53:16;;;;;;;47.90;24.60;;;;;;;-3.39;75.85;99787.37;1722756;81;21790;-59
2021/12/30 19:55:43;;;;;;;50.92;24.45;;;;;;;-3.35;75.89;99779.74;1717649;82;21515;-59
2021/12/30 19:58:10;;;;;;;47.23;24.25;;;;;;;-3.36;75.37;99784.42;1730273;81;21530;-59
2021/12/30 20:00:40;;;;;;;52.73;24.52;;;;;;;-3.41;75.37;99780.94;1722720;81;21440;-58
2021/12/30 20:03:07;;;;;;;54.55;26.40;;;;;;;-3.42;75.17;99788.19;1720122;81;21451;-60
2021/12/30 20:05:39;;;;;;;47.80;24.85;;;;;;;-3.41;75.56;99781.34;1717613;80;21551;-59
2021/12/30 20:08:07;;;;;;;58.87;28.95;;;;;;;-3.38;75.61;99791.68;1727553;81;21484;-58
2021/12/30 20:10:34;;;;;;;68.80;30.60;;;;;;;-3.38;75.36;99787.83;1724335;81;21610;-58
2021/12/30 20:13:03;;;;;;;58.83;29.18;;;;;;;-3.39;75.36;99792.11;1727933;81;21578;-58
2021/12/30 20:15:33;;;;;;;64.87;30.00;;;;;;;-3.45;75.24;99789.42;1718130;80;21672;-58
2021/12/30 20:17:59;;;;;;;;;;;;;;;-3.45;75.51;99798.84;1714625;81;21864;-60
2021/12/30 20:20:26;;;;;;;58.95;26.57;;;;;;;-3.44;75.60;99800.16;1712976;82;20444;-58
2021/12/30 20:22:53;;;;;;;68.13;28.77;;;;;;;-3.44;75.31;99809.59;1721083;82;21527;-60
2021/12/30 20:25:22;;;;;;;67.22;29.50;;;;;;;-3.45;75.45;99815.12;1738567;80;21444;-58
2021/12/30 20:27:49;;;;;;;68.85;30.05;;;;;;;-3.52;75.48;99812.03;1715931;80;21586;-59
2021/12/30 20:30:20;;;;;;;74.33;32.43;;;;;;;-3.54;75.60;99816.29;1723035;81;21813;-61
2021/12/30 20:32:48;;;;;;;77.67;30.10;;;;;;;-3.50;75.68;99821.03;1729765;81;21570;-58
2021/12/30 20:35:16;;;;;;;71.35;30.60;;;;;;;-3.52;75.71;99820.61;1720398;82;21042;-59
2021/12/30 20:37:45;;;;;;;70.25;31.30;;;;;;;-3.52;75.79;99806.89;1722925;81;21622;-59
2021/12/30 20:40:15;;;;;;;85.45;35.35;;;;;;;-3.50;76.07;99804.33;1717004;82;21432;-59
2021/12/30 20:42:43;;;;;;;81.82;36.42;;;;;;;-3.46;75.90;99803.56;1717344;81;20983;-60
2021/12/30 20:45:10;;;;;;;95.62;36.03;;;;;;;-3.40;75.91;99800.66;1716422;81;21561;-58
2021/12/30 20:47:42;;;;;;;86.20;34.17;;;;;;;-3.40;75.58;99799.80;1728873;80;21507;-58
2021/12/30 20:50:14;;;;;;;78.40;34.33;;;;;;;-3.39;75.64;99792.11;1721278;81;21086;-57
2021/12/30 20:52:43;;;;;;;79.95;36.58;;;;;;;-3.41;75.56;99795.48;1716678;81;21605;-59
2021/12/30 20:55:10;;;;;;;80.10;34.85;;;;;;;-3.44;75.65;99791.59;1718793;82;21772;-58
2021/12/30 20:57:39;;;;;;;75.67;31.85;;;;;;;-3.44;75.67;99786.02;1726260;81;21596;-59
2021/12/30 21:00:09;;;;;;;74.58;33.67;;;;;;;-3.39;75.80;99788.66;1712150;81;21522;-58
2021/12/30 21:02:37;;;;;;;85.28;34.70;;;;;;;-3.34;75.40;99794.31;1721286;82;21528;-56
2021/12/30 21:05:05;;;;;;;74.77;34.23;;;;;;;-3.38;75.47;99784.83;1715599;82;20975;-59
2021/12/30 21:07:33;;;;;;;76.47;36.30;;;;;;;-3.42;75.37;99786.91;1722037;80;21806;-60
2021/12/30 21:10:01;;;;;;;78.07;33.45;;;;;;;-3.46;75.45;99788.14;1713521;80;21594;-60
2021/12/30 21:12:28;;;;;;;79.82;35.05;;;;;;;-3.49;75.70;99789.36;1716201;80;21503;-60
2021/12/30 21:14:54;;;;;;;80.28;36.70;;;;;;;-3.46;75.72;99788.99;1717687;80;21595;-60
2021/12/30 21:17:25;;;;;;;67.87;31.63;;;;;;;-3.50;75.79;99793.64;1714393;80;21542;-60
2021/12/30 21:19:49;;;;;;;76.00;35.38;;;;;;;-3.54;75.79;99794.44;1714651;80;21828;-59
2021/12/30 21:22:16;;;;;;;73.15;33.08;;;;;;;-3.52;76.00;99790.19;1715511;80;21467;-59
